Terminal Aerodrome Forecast
Issued by NWS

Home | Current Version | Previous Version | Text Only | Print | Product List | Glossary On
Versions: 1 2 3 4 5 6 7 8 9 10 11 12 13 14 15 16 17 18 19 20 21 22 23 24 25 26 27 28 29 30 31 32
000
FTUS46 KMTR 201700
TAFSFO
TAF
KSFO 201734Z 2018/2124 21010KT P6SM BKN022
     FM201840 21005KT P6SM FEW009 SCT020
     FM202100 27015KT P6SM FEW025
     FM210300 29010KT P6SM FEW012 SCT025
     FM210500 26005KT P6SM FEW009 OVC015
     FM211800 20005KT P6SM SCT020=

USA.gov is the U.S. government's official web portal to all federal, state and local government web resources and services.